Time;durP1;ratioP1;P1;durP2;ratioP2;P2;SDS_P1;SDS_P2;PMS_P1;PMS_P2;Temp;Humidity;BMP_temperature;BMP_pressure;BME280_temperature;BME280_humidity;BME280_pressure;Samples;Min_cycle;Max_cycle;Signal;HPM_P1;HPM_P2
2021/09/10 00:01:16;;;;;;;10.90;7.43;;;18.70;95.30;;;;;;5051768;28;20480;-67
2021/09/10 00:03:42;;;;;;;8.27;6.55;;;18.70;95.70;;;;;;5052197;28;20033;-67
2021/09/10 00:06:07;;;;;;;7.78;6.85;;;18.60;96.20;;;;;;5051904;28;20085;-67
2021/09/10 00:08:33;;;;;;;8.27;7.03;;;18.50;96.60;;;;;;5050607;28;20037;-67
2021/09/10 00:10:59;;;;;;;8.50;7.15;;;18.40;97.00;;;;;;5051551;28;20446;-67
2021/09/10 00:13:24;;;;;;;9.55;7.78;;;18.40;97.50;;;;;;5050997;28;20025;-67
2021/09/10 00:15:50;;;;;;;7.75;6.93;;;18.30;98.20;;;;;;5050597;28;20462;-67
2021/09/10 00:18:16;;;;;;;10.90;7.25;;;18.20;98.70;;;;;;5051603;28;20394;-67
2021/09/10 00:20:41;;;;;;;12.05;7.70;;;18.10;99.30;;;;;;5051084;28;20028;-67
2021/09/10 00:23:07;;;;;;;9.43;7.55;;;18.10;99.80;;;;;;5051917;28;20029;-67
2021/09/10 00:25:33;;;;;;;8.30;7.03;;;18.00;99.90;;;;;;5050794;28;20036;-67
2021/09/10 00:27:58;;;;;;;9.43;7.32;;;18.00;99.90;;;;;;5051278;28;20063;-67
2021/09/10 00:30:24;;;;;;;9.52;7.15;;;17.90;99.90;;;;;;5050862;28;20043;-67
2021/09/10 00:32:50;;;;;;;7.97;7.00;;;17.90;99.90;;;;;;5051604;28;20029;-67
2021/09/10 00:35:15;;;;;;;8.93;7.85;;;17.80;99.90;;;;;;5043040;28;20423;-67
2021/09/10 00:37:41;;;;;;;10.48;7.85;;;17.80;99.90;;;;;;5051416;28;20051;-67
2021/09/10 00:40:08;;;;;;;9.90;7.75;;;17.80;99.90;;;;;;5049483;28;20120;-67
2021/09/10 00:42:34;;;;;;;8.30;7.47;;;17.70;99.90;;;;;;5050132;28;20057;-67
2021/09/10 00:44:59;;;;;;;8.02;6.85;;;17.70;99.90;;;;;;5050873;28;20029;-67
2021/09/10 00:47:25;;;;;;;6.90;6.22;;;17.70;99.90;;;;;;5050231;28;20024;-68
2021/09/10 00:49:52;;;;;;;7.47;6.68;;;17.80;99.90;;;;;;5051631;28;20363;-67
2021/09/10 00:52:18;;;;;;;8.27;6.82;;;17.80;99.90;;;;;;5050463;28;20028;-67
2021/09/10 00:54:44;;;;;;;9.80;7.03;;;17.80;99.90;;;;;;5049825;28;20033;-67
2021/09/10 00:57:10;;;;;;;10.80;8.23;;;17.80;99.90;;;;;;5051206;28;20021;-68
2021/09/10 00:59:35;;;;;;;10.07;7.40;;;17.90;99.90;;;;;;5049923;28;20121;-67
2021/09/10 01:02:02;;;;;;;10.13;7.20;;;17.90;99.90;;;;;;5031232;28;20394;-67
2021/09/10 01:04:29;;;;;;;9.50;6.90;;;17.90;99.90;;;;;;5032397;28;20034;-68
2021/09/10 01:06:56;;;;;;;7.78;6.95;;;17.90;99.90;;;;;;5039110;28;20382;-68
2021/09/10 01:09:22;;;;;;;7.70;6.53;;;17.90;99.90;;;;;;5049878;28;20029;-67
2021/09/10 01:11:53;;;;;;;8.38;7.22;;;17.90;99.90;;;;;;5050646;28;20482;-68
2021/09/10 01:14:18;;;;;;;;;;;17.90;99.90;;;;;;5050780;28;20037;-67
2021/09/10 01:16:46;;;;;;;12.95;8.07;;;17.80;99.90;;;;;;5051053;28;19908;-67
2021/09/10 01:19:27;;;;;;;11.52;8.38;;;17.80;99.90;;;;;;5050925;28;20508;-67
2021/09/10 01:21:56;;;;;;;10.18;8.07;;;17.80;99.90;;;;;;5054125;28;20075;-66
2021/09/10 01:24:37;;;;;;;8.50;7.53;;;17.80;99.90;;;;;;5054451;28;20470;-67
2021/09/10 01:27:04;;;;;;;9.10;8.05;;;17.70;99.90;;;;;;5055104;28;20111;-67
2021/09/10 01:29:32;;;;;;;8.82;7.90;;;17.70;99.90;;;;;;5054104;28;20763;-67
2021/09/10 01:31:58;;;;;;;9.00;7.28;;;17.70;99.90;;;;;;5054851;28;20035;-67
2021/09/10 01:34:24;;;;;;;8.38;7.45;;;17.70;99.90;;;;;;5054123;28;20410;-67
2021/09/10 01:36:50;;;;;;;9.30;7.35;;;17.60;99.90;;;;;;5054646;28;20029;-67
2021/09/10 01:39:16;;;;;;;9.80;7.75;;;17.60;99.90;;;;;;5054341;28;20087;-67
2021/09/10 01:41:41;;;;;;;9.90;8.88;;;17.60;99.90;;;;;;5053533;28;20376;-67
2021/09/10 01:44:07;;;;;;;11.60;8.63;;;17.60;99.90;;;;;;5054809;28;20033;-67
2021/09/10 01:46:33;;;;;;;10.48;7.90;;;17.60;99.90;;;;;;5054419;28;20037;-67
2021/09/10 01:48:58;;;;;;;11.07;7.97;;;17.60;99.90;;;;;;5054566;28;20037;-68
2021/09/10 01:51:29;;;;;;;8.35;7.50;;;17.50;99.90;;;;;;5053297;28;20119;-67
2021/09/10 01:53:55;;;;;;;8.82;7.93;;;17.50;99.90;;;;;;5054599;28;20366;-67
2021/09/10 01:56:20;;;;;;;8.52;7.55;;;17.50;99.90;;;;;;5053368;28;20078;-67
2021/09/10 01:58:46;;;;;;;8.00;7.20;;;17.50;99.90;;;;;;5053785;28;20537;-68
2021/09/10 02:01:11;;;;;;;8.30;7.47;;;17.50;99.90;;;;;;5053932;28;20021;-67
2021/09/10 02:03:37;;;;;;;8.10;7.22;;;17.50;99.90;;;;;;5053237;28;20035;-68
2021/09/10 02:06:03;;;;;;;9.50;7.43;;;17.50;99.90;;;;;;5054547;28;20044;-67
2021/09/10 02:08:28;;;;;;;9.85;8.05;;;17.50;99.90;;;;;;5052854;28;20413;-67
2021/09/10 02:10:54;;;;;;;9.05;8.13;;;17.50;99.90;;;;;;5053799;28;20021;-67
2021/09/10 02:13:20;;;;;;;8.02;7.22;;;17.60;99.90;;;;;;5052191;28;20029;-67
2021/09/10 02:15:46;;;;;;;8.65;7.70;;;17.50;99.90;;;;;;5053861;28;20032;-68
2021/09/10 02:18:11;;;;;;;8.38;7.55;;;17.50;99.90;;;;;;5054145;28;20470;-67
2021/09/10 02:20:37;;;;;;;8.35;7.25;;;17.50;99.90;;;;;;5053306;28;20025;-67
2021/09/10 02:23:03;;;;;;;8.95;7.15;;;17.50;99.90;;;;;;5053572;28;20037;-67
2021/09/10 02:25:29;;;;;;;9.73;7.57;;;17.50;99.90;;;;;;5053316;28;20483;-67
2021/09/10 02:27:54;;;;;;;8.00;7.22;;;17.50;99.90;;;;;;5052458;28;20025;-67
2021/09/10 02:30:20;;;;;;;10.55;7.85;;;17.40;99.90;;;;;;5053531;28;20390;-67
2021/09/10 02:32:45;;;;;;;8.48;7.50;;;17.40;99.90;;;;;;5052065;28;20083;-68
2021/09/10 02:35:11;;;;;;;14.68;7.90;;;17.40;99.90;;;;;;5053066;28;20048;-67
2021/09/10 02:37:37;;;;;;;8.38;7.43;;;17.40;99.90;;;;;;5052693;28;20029;-67
2021/09/10 02:40:03;;;;;;;8.18;7.35;;;17.50;99.90;;;;;;5053252;28;20048;-67
2021/09/10 02:42:29;;;;;;;8.77;7.00;;;17.50;99.90;;;;;;5052509;28;20059;-67
2021/09/10 02:44:54;;;;;;;7.80;6.82;;;17.50;99.90;;;;;;5053529;28;20100;-67
2021/09/10 02:47:20;;;;;;;7.40;6.70;;;17.50;99.90;;;;;;5053346;28;20413;-67
2021/09/10 02:49:45;;;;;;;8.90;7.30;;;17.50;99.90;;;;;;5052639;28;20037;-67
2021/09/10 02:52:11;;;;;;;12.02;6.80;;;17.50;99.90;;;;;;5053672;28;20126;-67
2021/09/10 02:54:37;;;;;;;7.90;7.10;;;17.50;99.90;;;;;;5052467;28;20025;-67
2021/09/10 02:57:03;;;;;;;8.43;7.47;;;17.60;99.90;;;;;;5053110;28;20020;-67
2021/09/10 02:59:28;;;;;;;9.43;6.95;;;17.60;99.90;;;;;;5052439;28;20033;-67
2021/09/10 03:01:54;;;;;;;7.38;6.68;;;17.60;99.90;;;;;;5053230;28;20029;-66
2021/09/10 03:04:19;;;;;;;9.95;7.30;;;17.60;99.90;;;;;;5053297;28;20074;-67
2021/09/10 03:06:45;;;;;;;7.53;6.47;;;17.70;99.90;;;;;;5052315;28;20033;-67
2021/09/10 03:09:11;;;;;;;8.02;7.07;;;17.70;99.90;;;;;;5052673;28;20033;-67
2021/09/10 03:11:36;;;;;;;8.55;7.22;;;17.70;99.90;;;;;;5051982;28;20473;-67
2021/09/10 03:14:02;;;;;;;10.88;6.50;;;17.80;99.90;;;;;;5053154;28;20577;-67
2021/09/10 03:16:28;;;;;;;7.78;7.00;;;17.80;99.90;;;;;;5052414;28;20051;-67
2021/09/10 03:18:54;;;;;;;7.72;6.95;;;17.80;99.90;;;;;;5052685;28;20037;-68
2021/09/10 03:21:19;;;;;;;10.43;7.50;;;17.80;99.90;;;;;;5053211;28;20466;-67
2021/09/10 03:23:45;;;;;;;9.65;7.13;;;17.80;99.90;;;;;;5051366;28;20032;-67
2021/09/10 03:26:10;;;;;;;9.93;7.50;;;17.80;99.90;;;;;;5047017;28;20029;-67
2021/09/10 03:28:36;;;;;;;8.93;7.68;;;17.80;99.90;;;;;;5051624;28;20032;-67
2021/09/10 03:31:01;;;;;;;8.65;7.75;;;17.80;99.90;;;;;;5052238;28;20025;-68
2021/09/10 03:33:27;;;;;;;8.70;7.75;;;17.80;99.90;;;;;;5051452;28;20031;-67
2021/09/10 03:35:53;;;;;;;9.85;7.75;;;17.80;99.90;;;;;;5050797;28;20060;-67
2021/09/10 03:38:18;;;;;;;8.68;7.72;;;17.80;99.90;;;;;;5051534;28;20048;-67
2021/09/10 03:40:44;;;;;;;9.65;8.55;;;17.70;99.90;;;;;;5050742;28;20498;-67
2021/09/10 03:43:09;;;;;;;12.40;8.95;;;17.70;99.90;;;;;;5050768;28;20128;-67
2021/09/10 03:45:35;;;;;;;12.40;8.38;;;17.70;99.90;;;;;;5050382;28;20032;-67
2021/09/10 03:48:02;;;;;;;10.45;9.27;;;17.70;99.90;;;;;;5049161;28;20112;-67
2021/09/10 03:50:28;;;;;;;11.77;9.27;;;17.60;99.90;;;;;;5051478;28;20028;-67
2021/09/10 03:52:54;;;;;;;11.20;8.57;;;17.70;99.90;;;;;;5052067;28;20052;-67
2021/09/10 03:55:20;;;;;;;10.02;8.88;;;17.60;99.90;;;;;;5052434;28;20059;-67
2021/09/10 03:57:46;;;;;;;10.02;8.27;;;17.60;99.90;;;;;;5051331;28;20052;-67
2021/09/10 04:00:12;;;;;;;9.45;8.32;;;17.50;99.90;;;;;;5051858;28;20032;-67
2021/09/10 04:02:38;;;;;;;11.10;8.85;;;17.50;99.90;;;;;;5051742;28;20383;-67
2021/09/10 04:05:04;;;;;;;10.65;8.65;;;17.40;99.90;;;;;;5052407;28;20025;-67
2021/09/10 04:07:29;;;;;;;12.25;9.18;;;17.40;99.90;;;;;;5051297;28;20033;-67
2021/09/10 04:09:55;;;;;;;14.27;8.80;;;17.40;99.90;;;;;;5051413;28;20037;-67
2021/09/10 04:12:21;;;;;;;11.75;9.38;;;17.30;99.90;;;;;;5051822;28;20033;-68
2021/09/10 04:14:46;;;;;;;10.65;8.50;;;17.30;99.90;;;;;;5050974;28;20025;-67
2021/09/10 04:17:12;;;;;;;10.30;9.23;;;17.30;99.90;;;;;;5050554;28;20029;-67
2021/09/10 04:19:38;;;;;;;10.30;9.15;;;17.20;99.90;;;;;;5050116;28;20041;-67
2021/09/10 04:22:03;;;;;;;11.15;9.15;;;17.20;99.90;;;;;;5050670;28;20029;-67
2021/09/10 04:24:29;;;;;;;10.52;8.93;;;17.20;99.90;;;;;;5050059;28;20436;-67
2021/09/10 04:26:54;;;;;;;9.68;7.63;;;17.10;99.90;;;;;;5051400;28;20100;-67
2021/09/10 04:29:20;;;;;;;10.20;8.75;;;17.10;99.90;;;;;;5048054;28;20402;-67
2021/09/10 04:31:46;;;;;;;10.55;9.20;;;17.10;99.90;;;;;;5050273;28;20386;-67
2021/09/10 04:34:12;;;;;;;9.25;8.35;;;17.10;99.90;;;;;;5051203;28;20028;-67
2021/09/10 04:36:37;;;;;;;10.25;8.48;;;17.00;99.90;;;;;;5049558;28;20036;-67
2021/09/10 04:39:03;;;;;;;10.27;8.52;;;17.00;99.90;;;;;;5051452;28;20033;-67
2021/09/10 04:41:29;;;;;;;10.93;9.70;;;17.00;99.90;;;;;;5050488;28;20397;-68
2021/09/10 04:43:54;;;;;;;10.80;9.65;;;17.00;99.90;;;;;;5051534;28;20053;-67
2021/09/10 04:46:20;;;;;;;9.82;8.82;;;17.00;99.90;;;;;;5051125;28;20033;-67
2021/09/10 04:48:46;;;;;;;9.52;8.52;;;16.90;99.90;;;;;;5049957;28;20029;-67
2021/09/10 04:51:11;;;;;;;9.38;8.38;;;17.00;99.90;;;;;;5050912;28;20024;-67
2021/09/10 04:53:39;;;;;;;11.40;8.27;;;16.90;99.90;;;;;;5049101;28;20052;-67
2021/09/10 04:56:05;;;;;;;12.48;8.52;;;17.00;99.90;;;;;;5049197;28;20025;-67
2021/09/10 04:58:31;;;;;;;8.82;7.63;;;17.00;99.90;;;;;;5048718;28;20047;-67
2021/09/10 05:00:56;;;;;;;8.93;8.02;;;17.00;99.90;;;;;;5050276;28;20036;-67
2021/09/10 05:03:23;;;;;;;9.98;7.90;;;17.00;99.90;;;;;;5050003;28;20025;-68
2021/09/10 05:05:49;;;;;;;9.45;7.88;;;17.10;99.90;;;;;;5047556;28;20057;-67
2021/09/10 05:08:15;;;;;;;9.00;7.80;;;17.10;99.90;;;;;;5049446;28;20454;-67
2021/09/10 05:10:40;;;;;;;10.73;8.25;;;17.10;99.90;;;;;;5048098;28;20032;-67
2021/09/10 05:13:06;;;;;;;8.07;7.18;;;17.10;99.90;;;;;;5049881;28;20036;-67
2021/09/10 05:15:32;;;;;;;8.57;7.50;;;17.10;99.90;;;;;;5049939;28;20040;-67
2021/09/10 05:17:57;;;;;;;10.80;9.70;;;17.20;99.90;;;;;;5050710;28;20025;-67
2021/09/10 05:20:23;;;;;;;10.02;8.80;;;17.20;99.90;;;;;;5051027;28;20064;-67
2021/09/10 05:22:50;;;;;;;10.32;9.10;;;17.20;99.90;;;;;;5050336;28;20037;-72
2021/09/10 05:25:15;;;;;;;10.18;9.13;;;17.20;99.90;;;;;;5050315;28;20578;-67
2021/09/10 05:27:41;;;;;;;10.63;9.52;;;17.20;99.90;;;;;;5050104;28;20104;-67
2021/09/10 05:30:07;;;;;;;10.18;8.80;;;17.20;99.90;;;;;;5050746;28;20108;-66
2021/09/10 05:32:33;;;;;;;10.88;9.43;;;17.20;99.90;;;;;;5049602;28;20117;-67
2021/09/10 05:34:59;;;;;;;9.75;8.75;;;17.20;99.90;;;;;;5050815;28;20040;-68
2021/09/10 05:37:24;;;;;;;10.50;8.60;;;17.30;99.90;;;;;;5050512;28;20029;-73
2021/09/10 05:39:50;;;;;;;10.30;8.57;;;17.30;99.90;;;;;;5050061;28;20037;-67
2021/09/10 05:42:15;;;;;;;10.90;8.95;;;17.30;99.90;;;;;;5041927;28;21005;-67
2021/09/10 05:44:41;;;;;;;10.73;9.43;;;17.40;99.90;;;;;;5048138;28;20032;-68
2021/09/10 05:47:07;;;;;;;12.32;8.73;;;17.50;99.90;;;;;;5050830;28;20466;-68
2021/09/10 05:49:32;;;;;;;11.35;8.80;;;17.50;99.90;;;;;;5048744;28;20037;-68
2021/09/10 05:51:58;;;;;;;12.27;10.23;;;17.60;99.90;;;;;;5048961;28;20035;-68
2021/09/10 05:54:25;;;;;;;10.65;8.82;;;17.60;99.90;;;;;;5048409;28;20045;-73
2021/09/10 05:56:50;;;;;;;10.07;8.73;;;17.60;99.90;;;;;;5048444;28;20067;-68
2021/09/10 05:59:16;;;;;;;9.98;8.80;;;17.60;99.90;;;;;;5047935;28;20075;-67
2021/09/10 06:01:41;;;;;;;11.23;9.95;;;17.70;99.90;;;;;;5048192;28;20446;-67
2021/09/10 06:04:08;;;;;;;11.75;9.68;;;17.70;99.90;;;;;;5048170;28;20507;-68
2021/09/10 06:06:35;;;;;;;11.20;9.10;;;17.80;99.90;;;;;;5049030;28;20039;-68
2021/09/10 06:09:01;;;;;;;11.05;9.85;;;17.90;99.90;;;;;;5052577;28;20486;-68
2021/09/10 06:11:27;;;;;;;12.52;9.15;;;17.90;99.90;;;;;;5051028;28;20048;-74
2021/09/10 06:13:53;;;;;;;10.77;9.38;;;17.90;99.90;;;;;;5054435;28;20036;-68
2021/09/10 06:16:18;;;;;;;11.27;9.25;;;18.00;99.90;;;;;;5050391;28;20036;-68
2021/09/10 06:18:44;;;;;;;10.90;8.68;;;18.00;99.90;;;;;;5052003;28;20127;-67
2021/09/10 06:21:10;;;;;;;10.10;9.10;;;18.10;99.90;;;;;;5053411;28;20033;-69
2021/09/10 06:23:35;;;;;;;16.77;10.00;;;18.10;99.90;;;;;;5053255;28;20340;-69
2021/09/10 06:26:01;;;;;;;11.73;9.32;;;18.20;99.90;;;;;;5054000;28;20103;-67
2021/09/10 06:28:26;;;;;;;10.30;8.43;;;18.30;99.90;;;;;;5053723;28;20036;-68
2021/09/10 06:30:52;;;;;;;10.20;9.18;;;18.30;99.90;;;;;;5052484;28;20021;-68
2021/09/10 06:33:18;;;;;;;13.45;10.27;;;18.40;99.90;;;;;;5052933;28;20037;-68
2021/09/10 06:35:43;;;;;;;13.20;10.65;;;18.50;99.90;;;;;;5052534;28;20485;-67
2021/09/10 06:38:09;;;;;;;11.75;9.65;;;18.60;99.90;;;;;;5052142;28;20478;-70
2021/09/10 06:40:35;;;;;;;12.35;9.60;;;18.70;99.90;;;;;;5053304;28;20051;-69
2021/09/10 06:43:00;;;;;;;12.60;9.02;;;18.70;99.90;;;;;;5054127;28;20049;-70
2021/09/10 06:45:26;;;;;;;13.07;10.02;;;18.80;99.90;;;;;;5053608;28;20028;-72
2021/09/10 06:47:51;;;;;;;13.88;9.82;;;18.90;99.90;;;;;;5053370;28;20025;-70
2021/09/10 06:50:17;;;;;;;11.18;9.55;;;19.10;99.90;;;;;;5053726;28;20466;-70
2021/09/10 06:52:44;;;;;;;11.20;9.98;;;19.10;99.90;;;;;;5052661;28;20107;-70
2021/09/10 06:55:10;;;;;;;12.95;9.63;;;19.20;99.90;;;;;;5053335;28;20033;-71
2021/09/10 06:57:36;;;;;;;11.57;9.02;;;19.30;99.90;;;;;;5052479;28;20029;-72
2021/09/10 07:00:04;;;;;;;10.77;9.45;;;19.40;99.90;;;;;;5052800;28;20139;-70
2021/09/10 07:02:30;;;;;;;15.05;10.50;;;19.60;99.90;;;;;;5055888;28;20025;-69
2021/09/10 07:04:55;;;;;;;13.32;10.00;;;19.80;99.90;;;;;;5052416;28;20033;-69
2021/09/10 07:07:21;;;;;;;11.50;10.30;;;19.90;99.90;;;;;;5053454;28;20458;-68
2021/09/10 07:09:48;;;;;;;12.25;9.55;;;20.10;99.90;;;;;;5051750;28;20025;-68
2021/09/10 07:12:13;;;;;;;15.52;9.90;;;20.30;99.90;;;;;;5054133;28;20041;-67
2021/09/10 07:14:39;;;;;;;16.02;10.15;;;20.40;99.90;;;;;;5052655;28;20029;-68
2021/09/10 07:17:05;;;;;;;13.35;10.00;;;20.40;99.90;;;;;;5052965;28;20025;-69
2021/09/10 07:19:30;;;;;;;11.98;9.32;;;20.40;99.90;;;;;;5051562;28;20383;-71
2021/09/10 07:21:56;;;;;;;15.23;9.00;;;20.50;99.90;;;;;;5052159;28;20037;-71
2021/09/10 07:24:22;;;;;;;11.48;8.85;;;20.60;99.90;;;;;;5052457;28;20033;-71
2021/09/10 07:26:51;;;;;;;11.13;8.02;;;20.60;99.90;;;;;;5052053;28;20033;-68
2021/09/10 07:29:19;;;;;;;9.65;8.55;;;20.70;99.90;;;;;;5051726;28;20033;-68
2021/09/10 07:31:46;;;;;;;14.60;9.65;;;20.80;99.90;;;;;;5036453;28;20088;-67
2021/09/10 07:34:11;;;;;;;12.38;9.38;;;21.00;99.90;;;;;;5034274;28;20022;-67
2021/09/10 07:36:37;;;;;;;14.77;8.77;;;21.20;99.90;;;;;;5051650;28;20104;-66
2021/09/10 07:39:03;;;;;;;14.07;10.23;;;21.30;99.90;;;;;;5052094;28;20029;-73
2021/09/10 07:41:28;;;;;;;10.23;8.73;;;21.60;99.90;;;;;;5051765;28;20496;-68
2021/09/10 07:43:54;;;;;;;12.00;9.63;;;21.70;99.90;;;;;;5053352;28;20214;-67
2021/09/10 07:46:19;;;;;;;14.30;8.48;;;21.70;99.80;;;;;;5050928;28;20046;-68
2021/09/10 07:48:45;;;;;;;11.02;7.78;;;21.80;98.70;;;;;;5051142;28;20473;-69
2021/09/10 07:51:11;;;;;;;12.00;8.48;;;21.80;99.20;;;;;;5049951;28;20028;-70
2021/09/10 07:53:36;;;;;;;9.13;6.80;;;21.90;98.50;;;;;;5054360;28;20029;-73
2021/09/10 07:56:03;;;;;;;11.50;7.38;;;22.10;97.30;;;;;;5042656;28;20114;-70
2021/09/10 07:58:28;;;;;;;13.00;6.72;;;22.20;96.70;;;;;;5052018;28;20453;-71
2021/09/10 08:00:54;;;;;;;8.02;6.60;;;22.40;95.90;;;;;;5050448;28;20041;-72
2021/09/10 08:03:19;;;;;;;9.63;7.00;;;22.50;95.10;;;;;;5052120;28;20083;-74
2021/09/10 08:05:45;;;;;;;9.23;6.35;;;22.60;94.80;;;;;;5051241;28;20102;-74
2021/09/10 08:08:11;;;;;;;6.50;5.63;;;22.90;94.40;;;;;;5051342;28;20036;-72
2021/09/10 08:10:36;;;;;;;9.30;6.30;;;23.10;93.80;;;;;;5051104;28;20037;-71
2021/09/10 08:13:02;;;;;;;8.50;6.15;;;23.40;93.00;;;;;;5051152;28;20485;-71
2021/09/10 08:15:28;;;;;;;11.05;6.22;;;23.70;92.20;;;;;;5043413;28;20584;-65
2021/09/10 08:17:54;;;;;;;7.30;5.72;;;24.00;91.60;;;;;;5050783;28;20038;-68
2021/09/10 08:20:19;;;;;;;8.00;5.80;;;24.30;90.20;;;;;;5051691;28;20120;-64
2021/09/10 08:22:46;;;;;;;7.60;6.07;;;24.60;87.00;;;;;;5051141;28;20040;-64
2021/09/10 08:25:13;;;;;;;6.30;5.50;;;24.70;84.70;;;;;;5051588;28;20017;-68
2021/09/10 08:27:40;;;;;;;7.47;5.75;;;24.90;84.80;;;;;;5043390;28;20044;-67
2021/09/10 08:30:07;;;;;;;5.60;5.10;;;25.10;81.70;;;;;;5051236;28;20025;-67
2021/09/10 08:32:33;;;;;;;18.13;6.28;;;25.10;79.50;;;;;;5053172;28;20104;-67
2021/09/10 08:34:58;;;;;;;8.82;5.60;;;25.30;78.50;;;;;;5049889;28;20115;-69
2021/09/10 08:37:26;;;;;;;5.00;4.47;;;25.40;77.50;;;;;;5049707;28;20107;-71
2021/09/10 08:39:51;;;;;;;17.15;6.05;;;25.40;75.80;;;;;;5050241;28;20123;-71
2021/09/10 08:42:17;;;;;;;7.10;5.25;;;25.30;75.00;;;;;;5051375;28;20128;-70
2021/09/10 08:44:43;;;;;;;7.55;5.13;;;25.20;75.20;;;;;;5042705;28;20070;-70
2021/09/10 08:47:10;;;;;;;7.63;4.95;;;25.10;74.80;;;;;;5050393;28;20032;-71
2021/09/10 08:49:38;;;;;;;5.85;5.25;;;24.90;75.10;;;;;;5052501;28;20462;-71
2021/09/10 08:52:04;;;;;;;5.88;5.07;;;24.70;75.40;;;;;;5050635;28;20040;-70
2021/09/10 08:54:30;;;;;;;5.28;4.85;;;24.60;75.40;;;;;;5051149;28;20037;-71
2021/09/10 08:56:56;;;;;;;12.10;5.70;;;24.50;75.60;;;;;;5050056;28;20027;-70
2021/09/10 08:59:22;;;;;;;8.48;5.53;;;24.40;76.10;;;;;;5056466;28;20488;-71
2021/09/10 09:01:50;;;;;;;8.10;5.57;;;24.30;76.90;;;;;;5049157;28;20036;-70
2021/09/10 09:04:16;;;;;;;5.72;5.13;;;24.20;76.90;;;;;;5050962;28;20032;-71
2021/09/10 09:06:43;;;;;;;8.07;5.57;;;24.10;76.90;;;;;;5050431;28;20056;-67
2021/09/10 09:09:08;;;;;;;8.15;6.03;;;24.10;76.80;;;;;;5051407;28;20033;-70
2021/09/10 09:11:34;;;;;;;5.93;5.32;;;24.00;77.30;;;;;;5051554;28;20379;-70
2021/09/10 09:14:03;;;;;;;7.55;5.45;;;24.10;77.30;;;;;;5050382;28;20036;-69
2021/09/10 09:16:30;;;;;;;6.22;5.63;;;24.10;77.30;;;;;;5051385;28;20032;-70
2021/09/10 09:18:56;;;;;;;27.65;6.45;;;24.20;77.10;;;;;;5050274;28;20497;-69
2021/09/10 09:21:30;;;;;;;7.07;5.72;;;24.30;77.20;;;;;;5050988;28;20035;-70
2021/09/10 09:23:58;;;;;;;7.18;6.07;;;24.40;77.20;;;;;;5050013;28;20427;-69
2021/09/10 09:26:28;;;;;;;11.73;6.43;;;24.60;77.20;;;;;;5051305;28;20051;-67
2021/09/10 09:29:03;;;;;;;9.80;6.00;;;24.60;76.70;;;;;;5047937;28;20036;-66
2021/09/10 09:31:29;;;;;;;8.60;5.50;;;24.80;76.20;;;;;;5051194;28;20036;-67
2021/09/10 09:33:55;;;;;;;8.20;6.40;;;25.00;75.60;;;;;;5050097;28;20031;-67
2021/09/10 09:36:20;;;;;;;6.07;5.47;;;25.00;75.40;;;;;;5050635;28;20029;-67
2021/09/10 09:38:46;;;;;;;12.75;6.13;;;25.10;74.60;;;;;;5049534;28;20032;-66
2021/09/10 09:41:15;;;;;;;14.13;6.80;;;25.10;74.70;;;;;;5050778;28;20029;-66
2021/09/10 09:43:46;;;;;;;11.30;6.57;;;25.20;74.20;;;;;;5054792;28;20581;-66
2021/09/10 09:46:14;;;;;;;12.52;6.10;;;25.20;73.10;;;;;;5053972;28;20029;-67
2021/09/10 09:48:43;;;;;;;8.30;5.75;;;25.00;73.60;;;;;;5054928;28;20127;-67
2021/09/10 09:51:10;;;;;;;16.58;6.78;;;25.00;73.70;;;;;;5053546;28;21214;-67
2021/09/10 09:53:37;;;;;;;8.40;6.13;;;24.90;73.40;;;;;;5054326;28;20501;-67
2021/09/10 09:56:04;;;;;;;8.52;6.03;;;24.90;74.00;;;;;;5053948;28;20025;-66
2021/09/10 09:58:31;;;;;;;6.75;5.95;;;24.80;74.10;;;;;;5054797;28;20485;-67
2021/09/10 10:00:58;;;;;;;9.40;6.43;;;24.70;74.40;;;;;;5054057;28;20029;-66
2021/09/10 10:03:23;;;;;;;11.25;6.32;;;24.70;74.90;;;;;;5054236;28;20021;-66
2021/09/10 10:05:52;;;;;;;9.57;6.10;;;24.70;75.00;;;;;;5053385;28;20032;-67
2021/09/10 10:08:47;;;;;;;6.85;5.65;;;24.90;74.70;;;;;;5054220;28;20110;-67
2021/09/10 10:11:15;;;;;;;9.30;6.32;;;25.00;74.60;;;;;;5040074;28;20041;-67
2021/09/10 10:13:41;;;;;;;12.48;6.72;;;25.20;73.60;;;;;;5054295;28;20025;-67
2021/09/10 10:16:27;;;;;;;14.68;5.97;;;25.20;73.70;;;;;;5053356;28;20025;-66
2021/09/10 10:18:53;;;;;;;11.88;6.18;;;25.00;73.70;;;;;;5048341;28;20367;-66
2021/09/10 10:21:19;;;;;;;26.00;6.60;;;25.00;74.50;;;;;;5054057;28;20029;-66
2021/09/10 10:23:44;;;;;;;6.25;5.40;;;25.20;73.90;;;;;;5054087;28;20032;-66
2021/09/10 10:26:17;;;;;;;6.72;6.03;;;25.40;72.90;;;;;;5053082;28;20019;-67
2021/09/10 10:28:47;;;;;;;7.40;5.63;;;25.60;71.30;;;;;;5054842;28;20025;-67
2021/09/10 10:31:14;;;;;;;6.43;5.70;;;25.60;71.00;;;;;;5035921;28;20376;-66
2021/09/10 10:33:48;;;;;;;9.52;5.28;;;25.70;71.40;;;;;;5054758;28;20029;-66
2021/09/10 10:36:32;;;;;;;7.10;5.30;;;25.80;71.20;;;;;;5054515;28;20466;-67
2021/09/10 10:39:14;;;;;;;7.47;6.78;;;25.90;71.10;;;;;;5052563;28;20044;-67
2021/09/10 10:41:53;;;;;;;10.00;6.15;;;26.20;70.60;;;;;;5054383;28;20057;-67
2021/09/10 10:44:34;;;;;;;7.53;5.57;;;26.60;70.00;;;;;;5053849;28;20352;-67
2021/09/10 10:47:06;;;;;;;6.72;5.40;;;26.80;68.40;;;;;;5051961;28;20055;-67
2021/09/10 10:49:36;;;;;;;7.57;5.82;;;26.80;68.70;;;;;;5053363;28;20041;-68
2021/09/10 10:52:28;;;;;;;5.88;5.28;;;26.90;66.70;;;;;;5051891;28;20021;-68
2021/09/10 10:55:20;;;;;;;7.10;5.28;;;26.90;66.70;;;;;;5051905;28;20496;-68
2021/09/10 10:57:47;;;;;;;7.95;5.65;;;27.00;67.00;;;;;;5052485;28;20025;-67
2021/09/10 11:00:33;;;;;;;7.10;5.35;;;27.20;66.60;;;;;;5053169;28;20486;-68
2021/09/10 11:03:14;;;;;;;10.40;5.72;;;27.30;66.90;;;;;;5047192;28;20051;-68
2021/09/10 11:05:58;;;;;;;7.25;5.28;;;27.40;65.90;;;;;;5052732;28;20025;-70
2021/09/10 11:08:40;;;;;;;7.20;5.68;;;27.40;66.00;;;;;;5047126;28;20032;-68
2021/09/10 11:11:06;;;;;;;15.35;6.07;;;27.40;66.00;;;;;;5050607;28;20032;-69
2021/09/10 11:13:31;;;;;;;13.35;6.20;;;27.50;65.20;;;;;;5053215;28;20041;-68
2021/09/10 11:15:57;;;;;;;8.77;5.30;;;27.30;65.30;;;;;;5050893;28;20438;-68
2021/09/10 11:18:25;;;;;;;13.00;4.90;;;27.00;65.60;;;;;;5053021;28;20029;-69
2021/09/10 11:20:55;;;;;;;12.23;5.20;;;26.80;65.50;;;;;;5052186;28;20025;-67
2021/09/10 11:23:34;;;;;;;5.72;5.22;;;26.50;65.90;;;;;;5052976;28;20033;-68
2021/09/10 11:26:00;;;;;;;6.43;4.72;;;26.30;66.20;;;;;;5052940;28;20086;-68
2021/09/10 11:28:29;;;;;;;31.88;5.97;;;26.20;66.60;;;;;;5053023;28;20029;-69
2021/09/10 11:30:55;;;;;;;26.08;5.78;;;26.30;66.40;;;;;;5051418;28;20471;-70
2021/09/10 11:33:22;;;;;;;6.97;5.03;;;26.40;66.10;;;;;;5053307;28;20036;-69
2021/09/10 11:35:50;;;;;;;5.30;4.75;;;26.50;66.10;;;;;;5052196;28;20029;-68
2021/09/10 11:38:20;;;;;;;4.90;4.50;;;26.70;66.20;;;;;;5052487;28;20036;-69
2021/09/10 11:40:57;;;;;;;7.22;5.53;;;26.90;65.60;;;;;;5051378;28;20071;-67
2021/09/10 11:43:35;;;;;;;8.27;5.40;;;27.00;65.70;;;;;;5051989;28;20091;-70
2021/09/10 11:46:01;;;;;;;8.32;5.60;;;27.10;65.50;;;;;;5051568;28;20433;-70
2021/09/10 11:48:32;;;;;;;6.43;5.57;;;27.20;65.40;;;;;;5051897;28;20033;-70
2021/09/10 11:50:59;;;;;;;7.85;5.72;;;27.20;65.50;;;;;;5051305;28;20413;-66
2021/09/10 11:53:35;;;;;;;5.93;4.93;;;27.10;65.20;;;;;;5052114;28;20036;-66
2021/09/10 11:56:01;;;;;;;9.82;5.45;;;26.80;65.70;;;;;;5051008;28;20033;-66
2021/09/10 11:58:49;;;;;;;6.28;5.68;;;26.60;66.00;;;;;;5052084;28;20516;-67
2021/09/10 12:01:25;;;;;;;6.47;5.05;;;26.60;66.50;;;;;;5059704;28;20043;-66
2021/09/10 12:03:53;;;;;;;7.55;6.25;;;26.70;66.30;;;;;;5051601;28;20029;-66
2021/09/10 12:06:21;;;;;;;6.93;5.57;;;26.80;66.50;;;;;;5051640;28;20074;-66
2021/09/10 12:09:10;;;;;;;6.13;5.40;;;27.00;66.30;;;;;;5052066;28;20032;-66
2021/09/10 12:11:58;;;;;;;7.97;5.95;;;27.10;66.40;;;;;;5051965;28;20045;-67
2021/09/10 12:14:52;;;;;;;6.90;5.55;;;27.10;66.30;;;;;;5043274;28;20048;-66
2021/09/10 12:17:24;;;;;;;7.50;5.65;;;27.10;66.10;;;;;;5052210;28;20421;-66
2021/09/10 12:19:54;;;;;;;6.57;5.88;;;26.90;66.00;;;;;;5051623;28;20033;-66
2021/09/10 12:22:27;;;;;;;;;;;26.80;66.50;;;;;;5052478;28;20025;-67
2021/09/10 12:25:24;;;;;;;6.18;5.47;;;26.70;66.90;;;;;;5050876;28;19912;-66
2021/09/10 12:28:10;;;;;;;6.65;5.95;;;26.70;67.70;;;;;;5050068;28;20486;-66
2021/09/10 12:30:48;;;;;;;6.50;5.82;;;26.60;67.50;;;;;;5048904;28;20104;-67
2021/09/10 12:33:19;;;;;;;7.85;5.45;;;26.80;67.50;;;;;;5053351;28;20520;-66
2021/09/10 12:35:46;;;;;;;9.75;6.00;;;27.30;66.10;;;;;;5051792;28;20111;-67
2021/09/10 12:38:18;;;;;;;8.18;5.90;;;27.50;65.80;;;;;;5050674;28;20428;-66
2021/09/10 12:40:52;;;;;;;6.20;5.60;;;27.50;65.60;;;;;;5051397;28;20052;-67
2021/09/10 12:43:20;;;;;;;7.28;5.97;;;27.30;65.60;;;;;;5051533;28;20102;-66
2021/09/10 12:45:47;;;;;;;6.63;5.90;;;27.30;66.10;;;;;;5051300;28;20082;-66